Time;durP1;ratioP1;P1;durP2;ratioP2;P2;SDS_P1;SDS_P2;PMS_P1;PMS_P2;Temp;Humidity;BMP_temperature;BMP_pressure;BME280_temperature;BME280_humidity;BME280_pressure;Samples;Min_cycle;Max_cycle;Signal;HPM_P1;HPM_P2
2022/03/21 00:01:11;;;;;;;24.48;17.88;;;8.90;87.40;;;;;;6094570;23;98637;-70
2022/03/21 00:03:39;;;;;;;25.95;19.58;;;8.90;87.40;;;;;;6120553;23;99215;-70
2022/03/21 00:06:06;;;;;;;26.13;19.63;;;9.00;86.90;;;;;;6095381;23;99180;-70
2022/03/21 00:08:33;;;;;;;30.10;20.77;;;9.00;86.70;;;;;;6094661;23;98510;-70
2022/03/21 00:11:00;;;;;;;29.80;20.27;;;9.00;87.00;;;;;;6121135;23;98505;-70
2022/03/21 00:13:27;;;;;;;29.10;19.83;;;9.00;87.20;;;;;;6094045;23;99771;-70
2022/03/21 00:15:56;;;;;;;29.70;19.98;;;9.10;87.40;;;;;;6120264;23;99739;-70
2022/03/21 00:18:24;;;;;;;30.98;19.27;;;9.00;87.50;;;;;;6094938;23;98468;-70
2022/03/21 00:20:53;;;;;;;32.03;21.45;;;9.00;87.60;;;;;;6093870;23;99309;-70
2022/03/21 00:23:25;;;;;;;29.48;21.23;;;9.00;87.70;;;;;;6120625;23;99240;-70
2022/03/21 00:25:53;;;;;;;33.45;21.45;;;9.00;87.50;;;;;;6094344;23;98997;-70
2022/03/21 00:28:20;;;;;;;32.15;21.38;;;8.90;87.60;;;;;;6095168;23;98548;-70
2022/03/21 00:30:47;;;;;;;32.50;22.88;;;9.00;87.40;;;;;;6121214;23;97758;-70
2022/03/21 00:33:15;;;;;;;30.48;19.70;;;9.00;87.30;;;;;;6069855;23;101802;-70
2022/03/21 00:35:43;;;;;;;29.02;20.55;;;9.00;87.90;;;;;;6093407;23;101973;-70
2022/03/21 00:38:15;;;;;;;29.92;20.85;;;9.00;87.20;;;;;;6120483;23;99132;-70
2022/03/21 00:40:45;;;;;;;30.55;19.85;;;9.10;87.20;;;;;;6093851;23;98508;-70
2022/03/21 00:43:19;;;;;;;33.95;21.38;;;9.10;87.10;;;;;;6120690;23;99266;-70
2022/03/21 00:45:46;;;;;;;29.02;20.80;;;9.10;87.00;;;;;;6120026;23;99205;-70
2022/03/21 00:48:14;;;;;;;30.13;22.23;;;9.00;86.90;;;;;;6094758;23;98444;-70
2022/03/21 00:50:41;;;;;;;33.88;24.45;;;9.10;87.00;;;;;;6093959;23;98620;-70
2022/03/21 00:53:08;;;;;;;31.80;22.92;;;9.10;86.60;;;;;;6069282;23;105923;-70
2022/03/21 00:55:35;;;;;;;28.27;20.83;;;9.10;86.60;;;;;;6120840;23;98924;-70
2022/03/21 00:58:02;;;;;;;33.28;22.20;;;9.10;86.60;;;;;;6120741;23;98843;-70
2022/03/21 01:00:31;;;;;;;32.58;23.00;;;9.10;86.90;;;;;;6094818;23;98489;-70
2022/03/21 01:03:00;;;;;;;33.10;23.95;;;9.10;86.50;;;;;;6093939;23;99994;-70
2022/03/21 01:05:27;;;;;;;29.92;22.73;;;9.20;86.50;;;;;;6120329;23;99810;-70
2022/03/21 01:07:56;;;;;;;34.35;24.27;;;9.20;86.40;;;;;;6120513;23;98379;-70
2022/03/21 01:10:24;;;;;;;35.42;23.42;;;9.20;86.50;;;;;;6120709;23;98485;-70
2022/03/21 01:12:52;;;;;;;34.58;23.08;;;9.20;86.60;;;;;;6119951;23;99761;-70
2022/03/21 01:15:21;;;;;;;32.55;23.52;;;9.20;86.80;;;;;;6120199;23;99002;-70
2022/03/21 01:17:48;;;;;;;34.53;23.33;;;9.30;86.90;;;;;;6120478;23;98491;-70
2022/03/21 01:20:18;;;;;;;34.03;23.90;;;9.20;87.10;;;;;;6122200;23;97655;-70
2022/03/21 01:22:46;;;;;;;41.47;26.85;;;9.20;87.30;;;;;;6119134;23;102115;-73
2022/03/21 01:25:14;;;;;;;36.97;24.73;;;9.10;87.30;;;;;;6121453;23;99095;-73
2022/03/21 01:27:42;;;;;;;38.40;26.35;;;9.10;87.50;;;;;;6121570;23;99622;-73
2022/03/21 01:30:12;;;;;;;38.38;25.38;;;9.10;87.40;;;;;;6095587;23;98492;-73
2022/03/21 01:32:42;;;;;;;35.53;25.17;;;9.10;87.40;;;;;;6121441;23;99304;-73
2022/03/21 01:35:15;;;;;;;38.47;24.85;;;9.10;87.50;;;;;;6121550;23;98956;-73
2022/03/21 01:37:42;;;;;;;34.17;23.88;;;9.10;87.40;;;;;;6095808;23;98511;-73
2022/03/21 01:40:10;;;;;;;30.25;22.02;;;9.10;87.30;;;;;;6121409;23;98471;-73
2022/03/21 01:42:39;;;;;;;34.70;22.25;;;9.10;87.20;;;;;;6120889;23;99302;-73
2022/03/21 01:45:07;;;;;;;34.53;23.45;;;9.00;87.10;;;;;;6094626;23;101761;-72
2022/03/21 01:47:34;;;;;;;34.83;24.08;;;9.00;87.00;;;;;;6095817;23;98894;-73
2022/03/21 01:50:03;;;;;;;38.17;22.60;;;9.00;87.10;;;;;;6121502;23;98466;-73
2022/03/21 01:52:30;;;;;;;32.60;22.20;;;9.00;87.00;;;;;;6120879;23;99911;-73
2022/03/21 01:57:46;;;;;;;33.35;22.23;;;9.00;86.80;;;;;;6095224;23;98521;-73
2022/03/21 02:00:14;;;;;;;33.75;22.23;;;9.00;86.90;;;;;;6119816;23;98525;-73
2022/03/21 02:02:45;;;;;;;30.40;21.23;;;9.00;86.90;;;;;;6121356;23;99111;-73
2022/03/21 02:05:12;;;;;;;28.38;19.90;;;9.00;87.00;;;;;;6095787;23;100418;-73
2022/03/21 02:07:39;;;;;;;30.77;21.52;;;9.00;86.80;;;;;;6094975;23;98539;-73
2022/03/21 02:10:07;;;;;;;29.00;21.02;;;9.00;86.80;;;;;;6121874;23;97695;-73
2022/03/21 02:12:35;;;;;;;31.35;22.63;;;9.00;86.70;;;;;;6121274;23;99270;-73
2022/03/21 02:15:03;;;;;;;30.83;21.48;;;9.00;86.90;;;;;;6120975;23;99084;-70
2022/03/21 02:17:35;;;;;;;31.33;23.08;;;9.00;87.00;;;;;;6094277;23;99263;-70
2022/03/21 02:20:03;;;;;;;31.20;21.67;;;9.00;87.00;;;;;;6094944;23;98571;-70
2022/03/21 02:22:37;;;;;;;28.83;21.08;;;9.00;87.10;;;;;;6070027;23;102280;-70
2022/03/21 02:25:28;;;;;;;30.10;21.33;;;9.00;87.20;;;;;;6070297;23;100100;-70
2022/03/21 02:27:58;;;;;;;35.53;22.70;;;9.00;87.10;;;;;;6121493;23;98388;-70
2022/03/21 02:30:28;;;;;;;30.73;21.52;;;9.00;87.00;;;;;;6094747;23;98566;-70
2022/03/21 02:32:55;;;;;;;30.98;22.25;;;9.00;87.00;;;;;;6120669;23;104631;-70
2022/03/21 02:35:24;;;;;;;30.85;21.40;;;9.00;87.10;;;;;;6121582;23;99116;-70
2022/03/21 02:37:52;;;;;;;33.35;22.67;;;9.00;87.10;;;;;;6121496;23;98504;-70
2022/03/21 02:40:19;;;;;;;32.53;20.92;;;9.00;87.10;;;;;;6095604;23;98502;-70
2022/03/21 02:42:46;;;;;;;31.75;21.10;;;9.00;86.70;;;;;;6094673;23;99904;-70
2022/03/21 02:45:13;;;;;;;30.08;20.58;;;9.00;86.70;;;;;;6120375;23;99660;-70
2022/03/21 02:47:40;;;;;;;29.85;19.73;;;9.00;86.50;;;;;;6094480;23;98500;-70
2022/03/21 02:50:11;;;;;;;27.92;19.15;;;9.00;86.50;;;;;;6046256;23;98839;-70
2022/03/21 02:52:39;;;;;;;27.85;18.52;;;9.00;86.50;;;;;;6121118;23;99420;-70
2022/03/21 02:55:06;;;;;;;29.45;18.50;;;9.00;86.20;;;;;;6120763;23;99115;-70
2022/03/21 02:57:33;;;;;;;31.73;19.80;;;9.00;86.20;;;;;;6094685;23;98423;-70
2022/03/21 03:00:00;;;;;;;26.35;18.05;;;9.00;86.00;;;;;;6070735;23;97708;-70
2022/03/21 03:02:27;;;;;;;26.67;18.70;;;9.00;86.00;;;;;;6121061;23;99194;-70
2022/03/21 03:04:54;;;;;;;23.58;17.92;;;8.90;86.00;;;;;;6121178;23;98747;-70
2022/03/21 03:07:21;;;;;;;24.60;17.23;;;8.90;85.90;;;;;;6120968;23;99139;-70
2022/03/21 03:09:48;;;;;;;27.25;18.67;;;8.80;85.90;;;;;;6095223;23;98522;-70
2022/03/21 03:12:15;;;;;;;26.98;17.77;;;8.80;86.00;;;;;;6120704;23;99204;-70
2022/03/21 03:14:42;;;;;;;24.17;17.52;;;8.70;86.10;;;;;;6070010;23;101514;-70
2022/03/21 03:17:09;;;;;;;23.52;17.92;;;8.70;86.20;;;;;;6069792;23;99356;-70
2022/03/21 03:19:36;;;;;;;24.02;17.67;;;8.60;86.30;;;;;;6121416;23;98468;-70
2022/03/21 03:22:04;;;;;;;26.25;17.70;;;8.50;86.40;;;;;;6120704;23;99140;-70
2022/03/21 03:24:32;;;;;;;25.80;18.40;;;8.40;86.60;;;;;;6094612;23;101832;-70
2022/03/21 03:27:00;;;;;;;26.75;18.20;;;8.40;86.80;;;;;;6121057;23;98458;-70
2022/03/21 03:29:27;;;;;;;28.92;19.15;;;8.30;87.00;;;;;;6121376;23;98392;-70
2022/03/21 03:31:54;;;;;;;29.08;19.42;;;8.20;87.20;;;;;;6094275;23;99829;-70
2022/03/21 03:34:21;;;;;;;26.65;18.33;;;8.10;87.30;;;;;;6094492;23;99556;-70
2022/03/21 03:36:48;;;;;;;31.55;20.02;;;8.10;87.50;;;;;;6070861;23;98549;-70
2022/03/21 03:39:15;;;;;;;29.48;19.80;;;8.00;87.70;;;;;;6121074;23;98462;-70
2022/03/21 03:41:42;;;;;;;32.53;20.05;;;8.00;87.90;;;;;;6093712;23;101903;-70
2022/03/21 03:44:10;;;;;;;30.92;19.27;;;7.90;88.10;;;;;;6069582;23;100100;-70
2022/03/21 03:46:37;;;;;;;34.45;19.58;;;7.90;88.20;;;;;;6070725;23;98612;-70
2022/03/21 03:49:04;;;;;;;32.10;19.77;;;7.80;88.50;;;;;;6095234;23;97800;-70
2022/03/21 03:51:31;;;;;;;29.75;20.17;;;7.70;88.70;;;;;;6121002;23;99076;-69
2022/03/21 03:53:58;;;;;;;30.23;19.95;;;7.60;88.80;;;;;;6120779;23;99085;-70
2022/03/21 03:56:25;;;;;;;29.70;18.98;;;7.60;88.80;;;;;;6120341;23;99091;-70
2022/03/21 03:58:52;;;;;;;30.20;19.98;;;7.50;88.80;;;;;;6095078;23;98538;-70
2022/03/21 04:01:19;;;;;;;28.70;18.77;;;7.40;88.90;;;;;;6120584;23;99134;-70
2022/03/21 04:03:46;;;;;;;29.55;19.58;;;7.40;89.10;;;;;;6069770;23;101607;-70
2022/03/21 04:06:14;;;;;;;31.52;19.00;;;7.30;89.20;;;;;;6120576;23;99032;-70
2022/03/21 04:08:41;;;;;;;34.97;19.98;;;7.30;89.30;;;;;;6094543;23;101247;-70
2022/03/21 04:11:08;;;;;;;27.23;18.75;;;7.20;89.30;;;;;;6120437;23;99140;-70
2022/03/21 04:13:35;;;;;;;25.98;18.17;;;7.20;89.30;;;;;;6070072;23;101547;-70
2022/03/21 04:16:03;;;;;;;32.53;18.55;;;7.10;89.30;;;;;;6121083;23;98379;-70
2022/03/21 04:18:30;;;;;;;27.70;18.33;;;7.10;89.40;;;;;;6121082;23;98537;-70
2022/03/21 04:21:17;;;;;;;30.23;18.05;;;7.00;89.40;;;;;;6119988;23;100045;-69
2022/03/21 04:23:44;;;;;;;29.88;18.45;;;7.00;89.50;;;;;;6069564;23;102352;-70
2022/03/21 04:26:12;;;;;;;28.55;17.83;;;6.90;89.50;;;;;;6120961;23;98508;-70
2022/03/21 04:28:39;;;;;;;27.13;18.65;;;6.90;89.60;;;;;;6094467;23;98542;-70
2022/03/21 04:31:06;;;;;;;30.73;19.08;;;6.80;89.60;;;;;;6120599;23;98982;-70
2022/03/21 04:33:33;;;;;;;31.20;18.17;;;6.80;89.70;;;;;;6094372;23;99110;-70
2022/03/21 04:36:00;;;;;;;31.85;18.17;;;6.80;89.80;;;;;;6120584;23;98487;-70
2022/03/21 04:38:27;;;;;;;27.55;17.85;;;6.70;89.80;;;;;;6070541;23;97782;-70
2022/03/21 04:40:54;;;;;;;28.90;17.33;;;6.70;89.80;;;;;;6120582;23;99164;-70
2022/03/21 04:43:21;;;;;;;25.88;17.65;;;6.70;89.90;;;;;;6120282;23;98930;-70
2022/03/21 04:45:49;;;;;;;26.38;17.67;;;6.60;89.80;;;;;;6093857;23;99193;-72
2022/03/21 04:48:16;;;;;;;26.88;17.83;;;6.60;89.90;;;;;;6094154;23;98582;-72
2022/03/21 04:50:43;;;;;;;28.83;16.77;;;6.50;89.90;;;;;;6120465;23;100091;-70
2022/03/21 04:53:11;;;;;;;26.55;17.17;;;6.50;90.00;;;;;;6119554;23;98891;-70
2022/03/21 04:55:39;;;;;;;26.70;16.88;;;6.50;90.00;;;;;;6120919;23;98554;-70
2022/03/21 04:58:07;;;;;;;32.45;18.02;;;6.50;90.10;;;;;;6120827;23;98466;-69
2022/03/21 05:00:36;;;;;;;29.83;17.70;;;6.40;90.10;;;;;;6120073;23;99177;-70
2022/03/21 05:03:07;;;;;;;32.00;17.30;;;6.40;90.20;;;;;;6094624;23;98989;-70
2022/03/21 05:05:40;;;;;;;27.92;17.77;;;6.30;90.10;;;;;;6120888;23;98487;-70
2022/03/21 05:08:07;;;;;;;27.38;17.60;;;6.30;90.10;;;;;;6120274;23;101464;-70
2022/03/21 05:10:35;;;;;;;28.65;17.60;;;6.20;90.10;;;;;;6093434;23;100007;-70
2022/03/21 05:13:03;;;;;;;29.60;18.15;;;6.10;90.10;;;;;;6069311;23;102486;-70
2022/03/21 05:15:30;;;;;;;29.90;18.60;;;6.10;90.20;;;;;;6094220;23;98576;-70
2022/03/21 05:17:57;;;;;;;27.58;16.73;;;6.00;90.20;;;;;;6094261;23;98865;-70
2022/03/21 05:20:25;;;;;;;31.40;18.48;;;6.00;90.40;;;;;;6119912;23;99133;-70
2022/03/21 05:31:11;;;;;;;34.72;20.55;;;5.90;90.90;;;;;;6120232;23;99157;-70
2022/03/21 05:36:26;;;;;;;36.85;19.75;;;5.90;91.20;;;;;;6119855;23;99151;-69
2022/03/21 05:38:55;;;;;;;35.97;19.52;;;5.90;91.50;;;;;;6094426;23;99133;-70
2022/03/21 05:41:22;;;;;;;34.75;18.33;;;5.80;91.20;;;;;;6092883;23;101772;-70
2022/03/21 05:43:49;;;;;;;30.92;18.75;;;5.80;91.20;;;;;;6120009;23;98971;-70
2022/03/21 05:46:17;;;;;;;33.17;18.65;;;5.80;91.10;;;;;;6069798;23;98544;-70
2022/03/21 05:48:51;;;;;;;31.52;20.48;;;5.70;91.10;;;;;;6094370;23;98508;-70
2022/03/21 05:51:22;;;;;;;36.75;19.98;;;5.70;91.10;;;;;;6093752;23;99358;-70
2022/03/21 05:53:50;;;;;;;37.35;20.33;;;5.70;91.20;;;;;;6093935;23;101563;-69
2022/03/21 05:56:18;;;;;;;34.65;21.17;;;5.70;91.30;;;;;;6120061;23;98494;-70
2022/03/21 05:58:45;;;;;;;37.25;21.98;;;5.70;91.60;;;;;;6093622;23;98931;-69
2022/03/21 06:01:18;;;;;;;33.40;20.55;;;5.80;91.50;;;;;;6093106;23;99946;-70
2022/03/21 06:03:47;;;;;;;33.60;21.38;;;5.80;91.60;;;;;;6095052;23;99765;-70
2022/03/21 06:06:15;;;;;;;35.55;19.58;;;5.90;91.70;;;;;;6121224;23;99315;-70
2022/03/21 06:08:43;;;;;;;30.30;20.00;;;6.00;91.80;;;;;;6095442;23;98512;-70
2022/03/21 06:11:12;;;;;;;29.80;18.48;;;6.20;91.80;;;;;;6094783;23;100193;-70
2022/03/21 06:13:43;;;;;;;31.27;18.08;;;6.40;91.70;;;;;;6119314;23;98988;-70
2022/03/21 06:16:11;;;;;;;28.05;18.02;;;6.60;91.60;;;;;;6121852;23;98886;-70
2022/03/21 06:18:39;;;;;;;26.88;17.65;;;6.80;91.40;;;;;;6070835;23;97782;-70
2022/03/21 06:21:08;;;;;;;25.50;17.48;;;7.00;91.10;;;;;;6120951;23;105352;-70
2022/03/21 06:23:36;;;;;;;21.80;16.05;;;7.10;90.90;;;;;;6070062;23;101241;-70
2022/03/21 06:26:04;;;;;;;26.10;17.35;;;7.30;90.70;;;;;;6121473;23;99240;-70
2022/03/21 06:28:31;;;;;;;25.13;18.55;;;7.50;90.40;;;;;;6095074;23;98456;-70
2022/03/21 06:30:58;;;;;;;24.63;15.93;;;7.60;90.00;;;;;;6121180;23;99141;-70
2022/03/21 06:33:27;;;;;;;22.85;16.83;;;7.70;89.40;;;;;;6094924;23;99096;-70
2022/03/21 06:35:56;;;;;;;23.42;16.08;;;7.90;88.70;;;;;;6121629;23;98355;-70
2022/03/21 06:38:24;;;;;;;22.75;17.00;;;8.10;88.40;;;;;;6095562;23;98583;-70
2022/03/21 06:40:51;;;;;;;23.98;17.17;;;8.30;87.90;;;;;;6120872;23;105103;-70
2022/03/21 06:43:20;;;;;;;19.85;17.60;;;8.70;87.80;;;;;;6094735;23;101536;-70
2022/03/21 06:45:50;;;;;;;26.63;18.45;;;9.00;86.60;;;;;;6120789;23;98404;-70
2022/03/21 06:48:18;;;;;;;19.98;15.38;;;9.50;85.00;;;;;;6121628;23;98451;-70
2022/03/21 06:50:48;;;;;;;21.45;18.75;;;9.90;83.90;;;;;;6120264;23;99891;-70
2022/03/21 06:53:16;;;;;;;24.15;17.42;;;10.10;82.50;;;;;;6094922;23;99752;-70
2022/03/21 06:55:44;;;;;;;21.80;18.13;;;10.40;82.00;;;;;;6121117;23;98404;-70
2022/03/21 06:58:13;;;;;;;22.55;16.27;;;10.50;81.20;;;;;;6070860;23;98505;-70
2022/03/21 07:00:46;;;;;;;18.60;16.50;;;10.70;80.80;;;;;;6120694;23;99101;-70
2022/03/21 07:03:15;;;;;;;21.63;16.33;;;10.80;80.20;;;;;;6121024;23;99048;-70
2022/03/21 07:05:43;;;;;;;21.15;14.88;;;11.00;79.90;;;;;;6070160;23;98566;-70
2022/03/21 07:08:10;;;;;;;22.05;15.98;;;11.20;79.20;;;;;;6095590;23;97727;-70
2022/03/21 07:10:40;;;;;;;20.58;16.20;;;11.40;78.20;;;;;;6070027;23;101823;-70
2022/03/21 07:13:08;;;;;;;20.98;15.27;;;11.50;77.70;;;;;;6120864;23;99072;-70
2022/03/21 07:15:35;;;;;;;21.33;16.45;;;11.50;77.40;;;;;;6094004;23;99189;-70
2022/03/21 07:18:02;;;;;;;23.25;17.58;;;11.40;76.70;;;;;;6120841;23;98505;-70
2022/03/21 07:20:29;;;;;;;20.95;16.55;;;11.50;77.20;;;;;;6094426;23;101960;-70
2022/03/21 07:22:57;;;;;;;21.42;16.55;;;11.50;77.40;;;;;;6120979;23;98979;-70
2022/03/21 07:25:25;;;;;;;20.10;16.13;;;11.60;77.20;;;;;;6070446;23;99143;-70
2022/03/21 07:27:52;;;;;;;19.38;16.08;;;11.70;76.70;;;;;;6070264;23;98515;-70
2022/03/21 07:30:19;;;;;;;22.65;14.60;;;12.00;76.30;;;;;;6045281;23;112875;-70
2022/03/21 07:32:47;;;;;;;21.05;15.75;;;12.30;75.50;;;;;;6070415;23;99037;-70
2022/03/21 07:35:14;;;;;;;18.40;15.05;;;12.50;75.10;;;;;;6121255;23;98457;-70
2022/03/21 07:37:43;;;;;;;18.83;15.43;;;12.70;74.00;;;;;;6121139;23;98546;-70
2022/03/21 07:40:11;;;;;;;21.95;15.52;;;12.90;73.50;;;;;;6094319;23;99670;-70
2022/03/21 07:42:43;;;;;;;21.00;15.90;;;13.00;73.00;;;;;;6093792;23;102456;-70
2022/03/21 07:47:57;;;;;;;20.38;15.57;;;13.50;72.20;;;;;;6120836;23;98478;-70
2022/03/21 07:50:25;;;;;;;18.20;15.90;;;13.80;71.20;;;;;;6094567;23;99340;-70
2022/03/21 07:52:53;;;;;;;19.30;17.10;;;14.30;70.30;;;;;;6094425;23;99372;-70
2022/03/21 07:55:21;;;;;;;20.77;18.27;;;14.70;68.10;;;;;;6121209;23;98446;-70
2022/03/21 07:57:48;;;;;;;17.83;16.13;;;15.20;67.50;;;;;;6121291;23;97820;-70
2022/03/21 08:00:16;;;;;;;18.80;16.45;;;15.80;66.80;;;;;;6121016;23;99246;-71
2022/03/21 08:02:43;;;;;;;19.35;17.55;;;16.30;65.10;;;;;;6094222;23;99050;-70
2022/03/21 08:05:16;;;;;;;19.05;17.17;;;16.80;63.40;;;;;;6070599;23;99291;-70
2022/03/21 08:07:46;;;;;;;20.13;18.23;;;17.30;61.30;;;;;;6095551;23;98636;-71
2022/03/21 08:10:15;;;;;;;22.23;20.10;;;17.80;58.90;;;;;;6069802;23;102017;-70
2022/03/21 08:12:42;;;;;;;21.35;19.65;;;18.10;57.90;;;;;;6094788;23;99201;-71
2022/03/21 08:15:13;;;;;;;25.33;23.15;;;18.40;56.70;;;;;;6094439;23;98578;-71
2022/03/21 08:17:58;;;;;;;24.88;22.73;;;18.70;55.80;;;;;;6094289;23;98559;-71
2022/03/21 08:20:34;;;;;;;24.10;22.00;;;19.20;53.40;;;;;;6069562;23;101716;-71
2022/03/21 08:23:05;;;;;;;22.50;20.55;;;19.40;53.40;;;;;;6094404;23;101540;-71
2022/03/21 08:25:34;;;;;;;25.98;23.77;;;19.60;53.50;;;;;;6094639;23;98508;-71
2022/03/21 08:28:01;;;;;;;23.38;21.33;;;19.80;51.00;;;;;;6120884;23;98872;-71
2022/03/21 08:30:32;;;;;;;20.63;18.83;;;19.70;51.20;;;;;;6120122;23;100059;-71
2022/03/21 08:33:01;;;;;;;21.20;19.25;;;19.80;50.60;;;;;;6095242;23;99779;-71
2022/03/21 08:35:28;;;;;;;17.40;15.05;;;19.80;50.70;;;;;;6121161;23;98532;-72
2022/03/21 08:37:55;;;;;;;15.82;14.23;;;19.60;50.70;;;;;;6094068;23;98508;-71
2022/03/21 08:40:22;;;;;;;20.25;16.73;;;19.40;50.80;;;;;;6093830;23;101695;-71
2022/03/21 08:42:49;;;;;;;17.20;15.48;;;19.20;51.10;;;;;;6120267;23;99012;-71
2022/03/21 08:45:16;;;;;;;18.48;15.00;;;18.80;51.90;;;;;;6121054;23;98868;-71
2022/03/21 08:47:44;;;;;;;17.83;15.13;;;18.40;52.10;;;;;;6094416;23;97735;-71
2022/03/21 08:50:11;;;;;;;16.00;13.18;;;18.10;53.80;;;;;;6094344;23;99130;-71
2022/03/21 08:52:39;;;;;;;16.58;14.25;;;17.70;54.10;;;;;;6094006;23;101819;-73
2022/03/21 08:55:07;;;;;;;15.23;13.07;;;17.20;55.50;;;;;;6069363;23;99212;-71
2022/03/21 08:57:34;;;;;;;15.85;13.35;;;16.90;55.90;;;;;;6120955;23;98436;-70
2022/03/21 09:00:05;;;;;;;17.40;12.88;;;16.50;57.60;;;;;;6068913;23;101701;-70
2022/03/21 09:02:33;;;;;;;17.67;13.85;;;16.20;57.70;;;;;;6093996;23;101717;-70
2022/03/21 09:05:00;;;;;;;17.52;13.63;;;16.00;58.80;;;;;;6094006;23;98576;-70
2022/03/21 09:07:27;;;;;;;16.52;13.90;;;15.70;59.00;;;;;;6070542;23;98659;-70
2022/03/21 09:09:54;;;;;;;19.25;14.25;;;15.50;59.30;;;;;;6120200;23;99130;-70
2022/03/21 09:12:21;;;;;;;19.20;13.98;;;15.30;60.50;;;;;;6094520;23;99204;-70
2022/03/21 09:14:48;;;;;;;16.92;13.10;;;15.10;61.40;;;;;;6120475;23;98409;-70
2022/03/21 09:17:15;;;;;;;18.52;14.48;;;15.00;61.80;;;;;;6120777;23;98495;-70
2022/03/21 09:19:42;;;;;;;18.40;13.45;;;14.80;61.60;;;;;;6119831;23;99959;-70
2022/03/21 09:22:10;;;;;;;19.52;13.80;;;14.80;61.10;;;;;;6093521;23;102265;-70
2022/03/21 09:24:51;;;;;;;19.33;12.45;;;14.60;61.50;;;;;;6094125;23;98490;-70
2022/03/21 09:27:54;;;;;;;16.05;12.93;;;14.50;61.90;;;;;;6071676;23;98589;-70
2022/03/21 09:30:21;;;;;;;20.25;14.10;;;14.50;64.00;;;;;;6078611;23;99178;-70
2022/03/21 09:32:48;;;;;;;20.70;13.95;;;14.40;63.10;;;;;;6093783;23;99108;-70
2022/03/21 09:35:15;;;;;;;20.65;13.77;;;14.40;62.50;;;;;;6120497;23;98378;-70
2022/03/21 09:37:43;;;;;;;20.52;13.80;;;14.30;63.30;;;;;;6095277;23;97770;-70
2022/03/21 09:40:11;;;;;;;22.38;13.85;;;14.40;63.90;;;;;;6120465;23;99313;-70
2022/03/21 09:42:39;;;;;;;17.50;13.70;;;14.40;63.80;;;;;;6121284;23;98950;-70
2022/03/21 09:45:08;;;;;;;19.30;13.68;;;14.40;64.50;;;;;;6094823;23;99217;-70
2022/03/21 09:48:12;;;;;;;19.02;12.50;;;14.40;65.00;;;;;;6049646;23;98509;-70
2022/03/21 09:50:42;;;;;;;18.10;13.60;;;14.40;64.70;;;;;;6121339;23;99195;-70
2022/03/21 09:53:16;;;;;;;19.77;15.75;;;14.50;65.20;;;;;;6095106;23;98922;-70
2022/03/21 09:55:44;;;;;;;20.63;15.35;;;14.50;64.40;;;;;;6095470;23;98530;-70
2022/03/21 09:58:12;;;;;;;23.13;15.60;;;14.40;64.00;;;;;;6094599;23;98518;-70
2022/03/21 10:00:40;;;;;;;23.30;15.10;;;14.40;63.40;;;;;;6095123;23;99354;-70
2022/03/21 10:03:08;;;;;;;21.75;15.10;;;14.50;63.50;;;;;;6095595;23;99090;-70
2022/03/21 10:05:43;;;;;;;24.40;18.13;;;14.50;63.10;;;;;;6094966;23;98517;-70
2022/03/21 10:08:16;;;;;;;22.45;16.02;;;14.50;62.70;;;;;;6121505;23;98356;-70
2022/03/21 10:11:01;;;;;;;19.63;16.05;;;14.50;64.40;;;;;;6094598;23;101175;-70
2022/03/21 10:13:38;;;;;;;20.20;15.38;;;14.60;65.10;;;;;;6094296;23;102391;-70
2022/03/21 10:16:16;;;;;;;25.65;18.60;;;14.70;64.80;;;;;;6121465;23;98363;-70
2022/03/21 10:18:52;;;;;;;25.85;19.35;;;14.80;63.80;;;;;;6070834;23;98508;-70
2022/03/21 10:21:21;;;;;;;26.42;18.58;;;14.80;62.90;;;;;;6121236;23;99351;-70
2022/03/21 10:24:06;;;;;;;30.98;19.60;;;14.80;63.00;;;;;;6120863;23;107233;-70
2022/03/21 10:26:41;;;;;;;24.55;18.40;;;15.00;62.60;;;;;;6121793;23;98912;-70
2022/03/21 10:29:11;;;;;;;25.08;19.48;;;15.00;62.80;;;;;;6122140;23;97629;-70
2022/03/21 10:31:51;;;;;;;26.45;19.80;;;15.10;63.10;;;;;;6121067;23;101954;-70
2022/03/21 10:34:21;;;;;;;23.98;18.13;;;15.20;62.50;;;;;;6094625;23;101577;-70
2022/03/21 10:37:05;;;;;;;23.42;17.90;;;15.20;62.30;;;;;;6093994;23;106593;-70
2022/03/21 10:39:35;;;;;;;29.08;18.48;;;15.30;62.60;;;;;;6121661;23;99071;-70
2022/03/21 10:42:04;;;;;;;23.10;19.35;;;15.40;62.20;;;;;;6094448;23;110247;-70
2022/03/21 10:44:33;;;;;;;22.83;17.40;;;15.40;61.90;;;;;;6094736;23;99016;-70
2022/03/21 10:47:03;;;;;;;25.60;19.42;;;15.50;62.00;;;;;;6088848;23;98545;-70
2022/03/21 10:49:38;;;;;;;23.38;17.55;;;15.50;60.70;;;;;;6091644;23;98337;-70
2022/03/21 10:52:06;;;;;;;25.00;17.95;;;15.50;59.90;;;;;;6088831;23;102135;-70
2022/03/21 10:54:48;;;;;;;24.23;17.23;;;15.40;59.30;;;;;;6089828;23;101506;-70
2022/03/21 10:57:36;;;;;;;23.35;17.85;;;15.40;59.10;;;;;;6091457;23;98616;-69
2022/03/21 11:00:24;;;;;;;24.42;17.92;;;15.30;59.00;;;;;;6091607;23;98505;-70
2022/03/21 11:02:51;;;;;;;26.85;18.27;;;15.30;60.20;;;;;;6090903;23;99863;-70
2022/03/21 11:05:19;;;;;;;23.58;17.98;;;15.30;60.40;;;;;;6091050;23;99577;-70
2022/03/21 11:07:47;;;;;;;27.50;20.02;;;15.40;60.80;;;;;;6091506;23;98395;-70
2022/03/21 11:10:15;;;;;;;26.50;18.33;;;15.40;61.50;;;;;;6089747;23;98767;-70
2022/03/21 11:12:42;;;;;;;26.27;18.52;;;15.40;60.30;;;;;;6091263;23;99258;-70
2022/03/21 11:15:10;;;;;;;23.60;17.30;;;15.40;59.20;;;;;;6089235;23;101803;-70
2022/03/21 11:17:38;;;;;;;22.63;18.50;;;15.40;60.40;;;;;;6091679;23;98395;-72
2022/03/21 11:20:06;;;;;;;24.13;18.17;;;15.40;60.00;;;;;;6091774;23;97710;-70
2022/03/21 11:22:34;;;;;;;23.60;17.88;;;15.40;59.80;;;;;;6091292;23;99238;-70
2022/03/21 11:25:07;;;;;;;25.02;17.90;;;15.40;59.00;;;;;;6090457;23;112698;-70
2022/03/21 11:27:58;;;;;;;26.55;18.73;;;15.40;58.50;;;;;;6089721;23;99300;-70
2022/03/21 11:30:58;;;;;;;24.48;17.42;;;15.40;59.30;;;;;;6091707;23;98443;-70
2022/03/21 11:33:45;;;;;;;24.85;17.95;;;15.40;59.20;;;;;;6091392;23;100667;-70
2022/03/21 11:36:13;;;;;;;25.73;18.38;;;15.50;60.10;;;;;;6064882;23;101655;-70
2022/03/21 11:38:47;;;;;;;26.25;19.08;;;15.60;59.30;;;;;;6091748;23;98930;-70
2022/03/21 11:41:18;;;;;;;24.10;18.65;;;15.80;59.90;;;;;;6091359;23;98430;-70
2022/03/21 11:44:06;;;;;;;25.65;19.20;;;15.90;58.50;;;;;;6089597;23;101884;-70
2022/03/21 11:46:40;;;;;;;28.13;17.95;;;16.00;59.00;;;;;;6092335;23;98948;-70
2022/03/21 11:49:22;;;;;;;25.45;18.65;;;16.00;58.60;;;;;;6120968;23;98400;-70
2022/03/21 11:51:59;;;;;;;27.30;19.52;;;16.00;58.00;;;;;;6070706;23;99093;-70
2022/03/21 11:54:31;;;;;;;22.67;18.42;;;16.00;58.60;;;;;;6093986;23;100036;-70
2022/03/21 11:57:06;;;;;;;25.63;19.40;;;16.00;58.70;;;;;;6094369;23;102379;-70
2022/03/21 11:59:33;;;;;;;26.63;18.13;;;16.10;59.00;;;;;;6095060;23;98571;-70
2022/03/21 12:02:07;;;;;;;27.45;18.83;;;16.10;57.90;;;;;;6094913;23;98420;-70
2022/03/21 12:04:35;;;;;;;28.27;19.30;;;16.20;58.50;;;;;;6120831;23;99136;-73
2022/03/21 12:07:25;;;;;;;26.40;18.92;;;16.30;58.60;;;;;;6120171;23;111901;-73
2022/03/21 12:09:54;;;;;;;30.30;19.10;;;16.50;57.30;;;;;;6102582;23;98433;-73
2022/03/21 12:12:22;;;;;;;28.42;19.92;;;16.50;57.00;;;;;;6121396;23;97755;-73
2022/03/21 12:15:00;;;;;;;25.63;19.15;;;16.60;57.50;;;;;;6120704;23;99157;-73
2022/03/21 12:17:28;;;;;;;29.02;20.35;;;16.70;56.70;;;;;;6120454;23;98683;-73
2022/03/21 12:19:57;;;;;;;26.30;20.33;;;16.60;56.40;;;;;;6120528;23;99184;-73
2022/03/21 12:22:27;;;;;;;28.55;20.05;;;16.60;55.30;;;;;;6094704;23;98431;-73
2022/03/21 12:25:21;;;;;;;26.17;19.58;;;16.60;55.20;;;;;;6094636;23;99161;-73
2022/03/21 12:27:57;;;;;;;23.27;17.38;;;16.60;54.80;;;;;;6094501;23;99045;-73
2022/03/21 12:30:27;;;;;;;26.10;19.92;;;16.50;56.30;;;;;;6120860;23;98442;-73
2022/03/21 12:33:00;;;;;;;29.50;20.42;;;16.60;56.70;;;;;;6121268;23;98612;-73
2022/03/21 12:35:39;;;;;;;27.70;19.95;;;16.70;57.20;;;;;;6120225;23;99428;-73
2022/03/21 12:38:16;;;;;;;27.38;21.63;;;16.70;56.50;;;;;;6121055;23;98910;-73
2022/03/21 12:40:59;;;;;;;29.45;20.08;;;16.70;55.80;;;;;;6094754;23;98638;-73
2022/03/21 12:43:27;;;;;;;26.45;18.60;;;16.80;55.40;;;;;;6120756;23;98503;-73
2022/03/21 12:46:07;;;;;;;27.08;20.25;;;16.80;56.40;;;;;;6120017;23;100038;-73
2022/03/21 12:48:45;;;;;;;25.63;18.67;;;16.90;56.80;;;;;;6094940;23;99769;-73
2022/03/21 12:51:15;;;;;;;24.63;18.80;;;17.00;56.30;;;;;;6094490;23;98516;-73
2022/03/21 12:53:48;;;;;;;30.55;21.27;;;17.00;56.00;;;;;;6121064;23;98485;-73
2022/03/21 12:56:16;;;;;;;;;;;17.10;55.30;;;;;;6094592;23;99293;-73
2022/03/21 12:58:46;;;;;;;25.65;18.55;;;16.90;54.40;;;;;;6096383;23;100964;-73
2022/03/21 13:01:18;;;;;;;28.52;21.10;;;16.90;55.40;;;;;;6094774;23;98499;-74